Time,TemperatureF,DewpointF,PressureIn,WindDirection,WindDirectionDegrees,WindSpeedMPH,WindSpeedGustMPH,Humidity,HourlyPrecipIn,Conditions,Clouds,dailyrainin,SoftwareType,DateUTC
2013-04-19 00:13:00,53.2,16.0,30.20,NNW,342,1.0,-999.0,23,-99.99,,,0.00,weatherlink.com 1.10,2013-04-19 07:13:00,
2013-04-19 00:28:00,51.9,17.0,30.20,South,173,0.0,-999.0,25,-99.99,,,0.00,weatherlink.com 1.10,2013-04-19 07:28:00,
2013-04-19 00:43:00,50.4,11.0,30.20,South,173,0.0,-999.0,20,-99.99,,,0.00,weatherlink.com 1.10,2013-04-19 07:43:00,
2013-04-19 00:58:00,49.2,12.0,30.21,South,173,0.0,-999.0,22,-99.99,,,0.00,weatherlink.com 1.10,2013-04-19 07:58:00,
2013-04-19 01:13:00,48.0,13.0,30.21,South,173,0.0,-999.0,24,-99.99,,,0.00,weatherlink.com 1.10,2013-04-19 08:13:00,
2013-04-19 01:28:00,47.7,12.0,30.20,SSW,196,0.0,-999.0,24,-99.99,,,0.00,weatherlink.com 1.10,2013-04-19 08:28:00,
2013-04-19 01:43:00,48.2,14.0,30.20,ENE,63,0.0,-999.0,25,-99.99,,,0.00,weatherlink.com 1.10,2013-04-19 08:43:00,
2013-04-19 01:59:00,47.3,12.0,30.20,ENE,63,0.0,-999.0,24,-99.99,,,0.00,weatherlink.com 1.10,2013-04-19 08:59:00,
2013-04-19 02:14:00,46.4,12.0,30.20,ENE,63,0.0,-999.0,25,-99.99,,,0.00,weatherlink.com 1.10,2013-04-19 09:14:00,
2013-04-19 02:29:00,45.5,12.0,30.21,ENE,61,0.0,-999.0,26,-99.99,,,0.00,weatherlink.com 1.10,2013-04-19 09:29:00,
2013-04-19 02:44:00,44.6,12.0,30.21,NE,53,0.0,-999.0,27,-99.99,,,0.00,weatherlink.com 1.10,2013-04-19 09:44:00,
2013-04-19 02:59:00,44.2,13.0,30.21,NNW,347,5.0,-999.0,28,-99.99,,,0.00,weatherlink.com 1.10,2013-04-19 09:59:00,
2013-04-19 03:14:00,44.2,13.0,30.20,NW,323,7.0,-999.0,28,-99.99,,,0.00,weatherlink.com 1.10,2013-04-19 10:14:00,
2013-04-19 03:29:00,44.3,13.0,30.20,NNW,328,6.0,-999.0,28,-99.99,,,0.00,weatherlink.com 1.10,2013-04-19 10:29:00,
2013-04-19 03:44:00,44.5,14.0,30.20,NNW,328,1.0,-999.0,29,-99.99,,,0.00,weatherlink.com 1.10,2013-04-19 10:44:00,
2013-04-19 03:59:00,44.1,14.0,30.20,NNW,329,4.0,-999.0,30,-99.99,,,0.00,weatherlink.com 1.10,2013-04-19 10:59:00,
2013-04-19 04:14:00,44.1,15.0,30.20,NNW,329,0.0,-999.0,31,-99.99,,,0.00,weatherlink.com 1.10,2013-04-19 11:14:00,
2013-04-19 04:29:00,45.1,16.0,30.20,NNW,329,0.0,-999.0,31,-99.99,,,0.00,weatherlink.com 1.10,2013-04-19 11:29:00,
2013-04-19 04:45:00,42.1,10.0,30.19,ESE,116,0.0,-999.0,27,-99.99,,,0.00,weatherlink.com 1.10,2013-04-19 11:45:00,
2013-04-19 05:00:00,40.6,10.0,30.21,ESE,122,0.0,-999.0,28,-99.99,,,0.00,weatherlink.com 1.10,2013-04-19 12:00:00,
2013-04-19 05:15:00,39.8,11.0,30.21,ESE,123,0.0,-999.0,31,-99.99,,,0.00,weatherlink.com 1.10,2013-04-19 12:15:00,
2013-04-19 05:30:00,39.1,11.0,30.22,ESE,122,0.0,-999.0,31,-99.99,,,0.00,weatherlink.com 1.10,2013-04-19 12:30:00,
2013-04-19 05:45:00,38.5,11.0,30.22,NNW,339,4.0,-999.0,32,-99.99,,,0.00,weatherlink.com 1.10,2013-04-19 12:45:00,
2013-04-19 06:00:00,38.0,10.0,30.22,NNW,337,5.0,-999.0,31,-99.99,,,0.00,weatherlink.com 1.10,2013-04-19 13:00:00,
2013-04-19 06:15:00,37.6,10.0,30.23,NNW,339,5.0,-999.0,32,-99.99,,,0.00,weatherlink.com 1.10,2013-04-19 13:15:00,
2013-04-19 06:30:00,37.9,10.0,30.23,NNW,340,4.0,-999.0,31,-99.99,,,0.00,weatherlink.com 1.10,2013-04-19 13:30:00,
2013-04-19 06:45:00,38.8,10.0,30.23,NNW,340,0.0,-999.0,31,-99.99,,,0.00,weatherlink.com 1.10,2013-04-19 13:45:00,
2013-04-19 07:00:00,39.6,11.0,30.23,NNW,340,0.0,-999.0,31,-99.99,,,0.00,weatherlink.com 1.10,2013-04-19 14:00:00,
2013-04-19 07:15:00,41.5,11.0,30.24,NNW,340,0.0,-999.0,29,-99.99,,,0.00,weatherlink.com 1.10,2013-04-19 14:15:00,
2013-04-19 07:31:00,43.6,11.0,30.23,NNW,340,0.0,-999.0,27,-99.99,,,0.00,weatherlink.com 1.10,2013-04-19 14:31:00,
2013-04-19 07:46:00,46.1,14.0,30.23,NNW,340,0.0,-999.0,28,-99.99,,,0.00,weatherlink.com 1.10,2013-04-19 14:46:00,
2013-04-19 08:01:00,46.7,13.0,30.23,SSW,211,0.0,-999.0,26,-99.99,,,0.00,weatherlink.com 1.10,2013-04-19 15:01:00,
2013-04-19 08:16:00,47.9,13.0,30.25,SSW,196,0.0,-999.0,24,-99.99,,,0.00,weatherlink.com 1.10,2013-04-19 15:16:00,
2013-04-19 08:31:00,49.6,13.0,30.25,SSW,196,0.0,-999.0,23,-99.99,,,0.00,weatherlink.com 1.10,2013-04-19 15:31:00,
2013-04-19 08:46:00,51.6,12.0,30.25,SSW,196,0.0,-999.0,20,-99.99,,,0.00,weatherlink.com 1.10,2013-04-19 15:46:00,
2013-04-19 09:01:00,53.6,12.0,30.23,ESE,108,0.0,-999.0,19,-99.99,,,0.00,weatherlink.com 1.10,2013-04-19 16:01:00,
2013-04-19 09:16:00,55.3,12.0,30.23,ESE,107,0.0,-999.0,18,-99.99,,,0.00,weatherlink.com 1.10,2013-04-19 16:16:00,
2013-04-19 09:31:00,57.0,12.0,30.23,ESE,115,0.0,-999.0,17,-99.99,,,0.00,weatherlink.com 1.10,2013-04-19 16:31:00,
2013-04-19 09:46:00,58.9,14.0,30.22,ESE,113,0.0,-999.0,17,-99.99,,,0.00,weatherlink.com 1.10,2013-04-19 16:46:00,
2013-04-19 10:01:00,60.5,14.0,30.22,SE,128,1.0,-999.0,16,-99.99,,,0.00,weatherlink.com 1.10,2013-04-19 17:01:00,
2013-04-19 10:17:00,62.3,14.0,30.21,ESE,119,0.0,-999.0,15,-99.99,,,0.00,weatherlink.com 1.10,2013-04-19 17:17:00,
2013-04-19 10:32:00,63.5,13.0,30.21,SE,126,0.0,-999.0,14,-99.99,,,0.00,weatherlink.com 1.10,2013-04-19 17:32:00,
2013-04-19 10:47:00,65.0,14.0,30.20,ESE,107,4.0,-999.0,14,-99.99,,,0.00,weatherlink.com 1.10,2013-04-19 17:47:00,
2013-04-19 11:02:00,66.4,12.0,30.19,ESE,118,0.0,-999.0,12,-99.99,,,0.00,weatherlink.com 1.10,2013-04-19 18:02:00,
2013-04-19 11:17:00,67.4,13.0,30.19,East,82,2.0,-999.0,12,-99.99,,,0.00,weatherlink.com 1.10,2013-04-19 18:17:00,
2013-04-19 11:32:00,68.9,12.0,30.17,ENE,62,0.0,-999.0,11,-99.99,,,0.00,weatherlink.com 1.10,2013-04-19 18:32:00,
2013-04-19 11:47:00,70.6,9.0,30.16,ESE,107,0.0,-999.0,9,-99.99,,,0.00,weatherlink.com 1.10,2013-04-19 18:47:00,
2013-04-19 12:02:00,70.8,6.0,30.15,East,101,0.0,-999.0,8,-99.99,,,0.00,weatherlink.com 1.10,2013-04-19 19:02:00,
2013-04-19 12:17:00,71.8,4.0,30.15,SE,131,0.0,-999.0,7,-99.99,,,0.00,weatherlink.com 1.10,2013-04-19 19:17:00,
2013-04-19 12:33:00,72.5,5.0,30.14,ENE,73,3.0,-999.0,7,-99.99,,,0.00,weatherlink.com 1.10,2013-04-19 19:33:00,
2013-04-19 12:48:00,73.0,5.0,30.13,ESE,114,2.0,-999.0,7,-99.99,,,0.00,weatherlink.com 1.10,2013-04-19 19:48:00,
2013-04-19 13:03:00,73.5,2.0,30.12,SSW,194,2.0,-999.0,6,-99.99,,,0.00,weatherlink.com 1.10,2013-04-19 20:03:00,
2013-04-19 13:18:00,73.9,2.0,30.11,East,97,1.0,-999.0,6,-99.99,,,0.00,weatherlink.com 1.10,2013-04-19 20:18:00,
2013-04-19 13:33:00,76.0,4.0,30.10,NE,55,1.0,-999.0,6,-99.99,,,0.00,weatherlink.com 1.10,2013-04-19 20:33:00,
2013-04-19 13:48:00,75.6,4.0,30.10,SSW,205,0.0,-999.0,6,-99.99,,,0.00,weatherlink.com 1.10,2013-04-19 20:48:00,
2013-04-19 14:03:00,77.9,5.0,30.09,SW,222,0.0,-999.0,6,-99.99,,,0.00,weatherlink.com 1.10,2013-04-19 21:03:00,
2013-04-19 14:18:00,78.1,6.0,30.08,West,270,0.0,-999.0,6,-99.99,,,0.00,weatherlink.com 1.10,2013-04-19 21:18:00,
2013-04-19 14:33:00,76.5,4.0,30.09,SSE,161,2.0,-999.0,6,-99.99,,,0.00,weatherlink.com 1.10,2013-04-19 21:33:00,
2013-04-19 14:48:00,76.8,8.0,30.07,ENE,72,5.0,-999.0,7,-99.99,,,0.00,weatherlink.com 1.10,2013-04-19 21:48:00,
2013-04-19 15:03:00,77.6,9.0,30.05,SSE,150,1.0,-999.0,7,-99.99,,,0.00,weatherlink.com 1.10,2013-04-19 22:03:00,
2013-04-19 15:19:00,79.0,10.0,30.05,West,263,4.0,-999.0,7,-99.99,,,0.00,weatherlink.com 1.10,2013-04-19 22:19:00,
2013-04-19 15:34:00,79.8,7.0,30.03,WNW,284,6.0,-999.0,6,-99.99,,,0.00,weatherlink.com 1.10,2013-04-19 22:34:00,
2013-04-19 15:49:00,80.7,11.0,30.02,WSW,244,3.0,-999.0,7,-99.99,,,0.00,weatherlink.com 1.10,2013-04-19 22:49:00,
2013-04-19 16:04:00,81.2,11.0,30.01,SW,236,7.0,-999.0,7,-99.99,,,0.00,weatherlink.com 1.10,2013-04-19 23:04:00,
2013-04-19 16:19:00,80.5,14.0,30.02,WSW,253,10.0,-999.0,8,-99.99,,,0.00,weatherlink.com 1.10,2013-04-19 23:19:00,
2013-04-19 16:34:00,81.6,15.0,30.01,NNW,335,6.0,-999.0,8,-99.99,,,0.00,weatherlink.com 1.10,2013-04-19 23:34:00,
2013-04-19 16:49:00,81.8,18.0,30.00,NW,313,17.0,-999.0,9,-99.99,,,0.00,weatherlink.com 1.10,2013-04-19 23:49:00,
2013-04-19 17:04:00,80.1,16.0,30.00,NW,306,16.0,-999.0,9,-99.99,,,0.00,weatherlink.com 1.10,2013-04-20 00:04:00,
2013-04-19 17:19:00,79.6,16.0,30.01,NNW,340,11.0,-999.0,9,-99.99,,,0.00,weatherlink.com 1.10,2013-04-20 00:19:00,
2013-04-19 17:34:00,78.6,18.0,30.01,WNW,302,13.0,-999.0,10,-99.99,,,0.00,weatherlink.com 1.10,2013-04-20 00:34:00,
2013-04-19 17:49:00,77.2,16.0,30.01,NW,307,15.0,-999.0,10,-99.99,,,0.00,weatherlink.com 1.10,2013-04-20 00:49:00,
2013-04-19 18:05:00,75.6,15.0,30.02,WNW,285,15.0,-999.0,10,-99.99,,,0.00,weatherlink.com 1.10,2013-04-20 01:05:00,
2013-04-19 18:20:00,74.6,17.0,30.01,NW,309,17.0,-999.0,11,-99.99,,,0.00,weatherlink.com 1.10,2013-04-20 01:20:00,
2013-04-19 18:35:00,73.5,18.0,30.02,WNW,297,16.0,-999.0,12,-99.99,,,0.00,weatherlink.com 1.10,2013-04-20 01:35:00,
2013-04-19 18:50:00,72.7,15.0,30.02,West,277,15.0,-999.0,11,-99.99,,,0.00,weatherlink.com 1.10,2013-04-20 01:50:00,
2013-04-19 19:05:00,72.0,17.0,30.02,WNW,285,11.0,-999.0,12,-99.99,,,0.00,weatherlink.com 1.10,2013-04-20 02:05:00,
2013-04-19 19:20:00,70.4,17.0,30.00,WSW,247,7.0,-999.0,13,-99.99,,,0.00,weatherlink.com 1.10,2013-04-20 02:20:00,
2013-04-19 19:35:00,68.9,18.0,30.00,West,267,6.0,-999.0,14,-99.99,,,0.00,weatherlink.com 1.10,2013-04-20 02:35:00,
2013-04-19 19:50:00,67.8,18.0,30.01,West,259,0.0,-999.0,15,-99.99,,,0.00,weatherlink.com 1.10,2013-04-20 02:50:00,
2013-04-19 20:05:00,66.9,19.0,30.01,WSW,254,13.0,-999.0,16,-99.99,,,0.00,weatherlink.com 1.10,2013-04-20 03:05:00,
2013-04-19 20:20:00,66.3,20.0,29.99,WNW,283,18.0,-999.0,17,-99.99,,,0.00,weatherlink.com 1.10,2013-04-20 03:20:00,
2013-04-19 20:35:00,66.1,18.0,29.99,West,261,14.0,-999.0,16,-99.99,,,0.00,weatherlink.com 1.10,2013-04-20 03:35:00,
2013-04-19 20:50:00,66.1,17.0,29.99,West,267,19.0,-999.0,15,-99.99,,,0.00,weatherlink.com 1.10,2013-04-20 03:50:00,
2013-04-19 21:05:00,65.3,18.0,30.00,WSW,254,23.0,-999.0,16,-99.99,,,0.00,weatherlink.com 1.10,2013-04-20 04:05:00,
2013-04-19 21:21:00,64.8,21.0,29.98,SW,218,10.0,-999.0,19,-99.99,,,0.00,weatherlink.com 1.10,2013-04-20 04:21:00,
2013-04-19 21:36:00,64.2,21.0,29.99,WSW,242,5.0,-999.0,19,-99.99,,,0.00,weatherlink.com 1.10,2013-04-20 04:36:00,
2013-04-19 21:51:00,63.9,21.0,29.99,SSW,207,8.0,-999.0,19,-99.99,,,0.00,weatherlink.com 1.10,2013-04-20 04:51:00,
2013-04-19 22:06:00,63.7,21.0,30.00,SW,227,9.0,-999.0,19,-99.99,,,0.00,weatherlink.com 1.10,2013-04-20 05:06:00,
2013-04-19 22:21:00,64.5,21.0,29.98,SW,217,13.0,-999.0,19,-99.99,,,0.00,weatherlink.com 1.10,2013-04-20 05:21:00,
2013-04-19 22:36:00,66.6,19.0,29.96,SW,223,14.0,-999.0,16,-99.99,,,0.00,weatherlink.com 1.10,2013-04-20 05:36:00,
2013-04-19 22:51:00,66.9,19.0,29.96,West,264,15.0,-999.0,16,-99.99,,,0.00,weatherlink.com 1.10,2013-04-20 05:51:00,
2013-04-19 23:06:00,67.1,21.0,29.96,West,259,11.0,-999.0,17,-99.99,,,0.00,weatherlink.com 1.10,2013-04-20 06:06:00,
2013-04-19 23:21:00,65.6,22.0,29.95,SSE,165,2.0,-999.0,19,-99.99,,,0.00,weatherlink.com 1.10,2013-04-20 06:21:00,
2013-04-19 23:36:00,64.7,21.0,29.95,NNE,19,0.0,-999.0,19,-99.99,,,0.00,weatherlink.com 1.10,2013-04-20 06:36:00,
2013-04-19 23:51:00,65.5,22.0,29.94,WNW,302,32.0,-999.0,19,-99.99,,,0.00,weatherlink.com 1.10,2013-04-20 06:51:00,